sensor_id;sensor_type;location;lat;lon;timestamp;temperature;humidity
13174;DHT22;6652;48.802;9.190;2023-04-01T00:01:57;9.00;99.90
13174;DHT22;6652;48.802;9.190;2023-04-01T00:04:24;9.10;99.90
13174;DHT22;6652;48.802;9.190;2023-04-01T00:06:51;9.10;99.90
13174;DHT22;6652;48.802;9.190;2023-04-01T00:09:18;9.20;99.90
13174;DHT22;6652;48.802;9.190;2023-04-01T00:11:45;9.50;99.90
13174;DHT22;6652;48.802;9.190;2023-04-01T00:14:13;9.10;99.90
13174;DHT22;6652;48.802;9.190;2023-04-01T00:16:40;9.30;99.90
13174;DHT22;6652;48.802;9.190;2023-04-01T00:19:07;9.30;99.90
13174;DHT22;6652;48.802;9.190;2023-04-01T00:21:34;9.30;99.90
13174;DHT22;6652;48.802;9.190;2023-04-01T00:24:02;9.30;99.90
13174;DHT22;6652;48.802;9.190;2023-04-01T00:26:29;9.30;99.90
13174;DHT22;6652;48.802;9.190;2023-04-01T00:28:56;9.30;99.90
13174;DHT22;6652;48.802;9.190;2023-04-01T00:31:25;9.30;99.90
13174;DHT22;6652;48.802;9.190;2023-04-01T00:33:51;9.30;99.90
13174;DHT22;6652;48.802;9.190;2023-04-01T00:36:20;9.30;99.90
13174;DHT22;6652;48.802;9.190;2023-04-01T00:38:49;9.20;99.90
13174;DHT22;6652;48.802;9.190;2023-04-01T00:41:16;9.20;99.90
13174;DHT22;6652;48.802;9.190;2023-04-01T00:43:45;9.20;99.90
13174;DHT22;6652;48.802;9.190;2023-04-01T00:46:13;9.80;99.90
13174;DHT22;6652;48.802;9.190;2023-04-01T00:48:43;9.20;99.90
13174;DHT22;6652;48.802;9.190;2023-04-01T00:51:15;9.20;99.90
13174;DHT22;6652;48.802;9.190;2023-04-01T00:53:45;9.60;99.90
13174;DHT22;6652;48.802;9.190;2023-04-01T00:56:15;9.30;99.90
13174;DHT22;6652;48.802;9.190;2023-04-01T00:58:46;9.40;99.90
13174;DHT22;6652;48.802;9.190;2023-04-01T01:01:15;9.40;99.90
13174;DHT22;6652;48.802;9.190;2023-04-01T01:03:43;9.40;99.90
13174;DHT22;6652;48.802;9.190;2023-04-01T01:06:19;9.40;99.90
13174;DHT22;6652;48.802;9.190;2023-04-01T01:09:18;9.40;99.90
13174;DHT22;6652;48.802;9.190;2023-04-01T01:11:54;9.40;99.90
13174;DHT22;6652;48.802;9.190;2023-04-01T01:14:32;9.40;99.90
13174;DHT22;6652;48.802;9.190;2023-04-01T01:17:08;9.40;99.90
13174;DHT22;6652;48.802;9.190;2023-04-01T01:22:56;9.30;99.90
13174;DHT22;6652;48.802;9.190;2023-04-01T01:25:37;9.40;99.90
13174;DHT22;6652;48.802;9.190;2023-04-01T01:28:18;9.40;99.90
13174;DHT22;6652;48.802;9.190;2023-04-01T01:30:51;9.40;99.90
13174;DHT22;6652;48.802;9.190;2023-04-01T01:33:49;9.40;99.90
13174;DHT22;6652;48.802;9.190;2023-04-01T01:36:21;9.40;99.90
13174;DHT22;6652;48.802;9.190;2023-04-01T01:38:50;9.40;99.90
13174;DHT22;6652;48.802;9.190;2023-04-01T01:41:18;9.40;99.90
13174;DHT22;6652;48.802;9.190;2023-04-01T01:43:49;9.40;99.90
13174;DHT22;6652;48.802;9.190;2023-04-01T01:46:20;9.40;99.90
13174;DHT22;6652;48.802;9.190;2023-04-01T01:48:48;9.40;99.90
13174;DHT22;6652;48.802;9.190;2023-04-01T01:51:16;9.40;99.90
13174;DHT22;6652;48.802;9.190;2023-04-01T01:53:45;9.40;99.90
13174;DHT22;6652;48.802;9.190;2023-04-01T01:56:12;9.40;99.90
13174;DHT22;6652;48.802;9.190;2023-04-01T01:58:41;9.40;99.90
13174;DHT22;6652;48.802;9.190;2023-04-01T02:01:13;9.40;99.90
13174;DHT22;6652;48.802;9.190;2023-04-01T02:03:42;9.40;99.90
13174;DHT22;6652;48.802;9.190;2023-04-01T02:06:12;9.40;99.90
13174;DHT22;6652;48.802;9.190;2023-04-01T02:08:43;9.30;99.90
13174;DHT22;6652;48.802;9.190;2023-04-01T02:11:15;9.30;99.90
13174;DHT22;6652;48.802;9.190;2023-04-01T02:13:49;9.30;99.90
13174;DHT22;6652;48.802;9.190;2023-04-01T02:16:21;9.30;99.90
13174;DHT22;6652;48.802;9.190;2023-04-01T02:18:51;9.20;99.90
13174;DHT22;6652;48.802;9.190;2023-04-01T02:21:22;9.20;99.90
13174;DHT22;6652;48.802;9.190;2023-04-01T02:23:52;9.40;99.90
13174;DHT22;6652;48.802;9.190;2023-04-01T02:26:21;9.20;99.90
13174;DHT22;6652;48.802;9.190;2023-04-01T02:28:50;9.40;99.90
13174;DHT22;6652;48.802;9.190;2023-04-01T02:31:19;9.20;99.90
13174;DHT22;6652;48.802;9.190;2023-04-01T02:33:47;9.20;99.90
13174;DHT22;6652;48.802;9.190;2023-04-01T02:36:14;9.20;99.90
13174;DHT22;6652;48.802;9.190;2023-04-01T02:38:43;9.20;99.90
13174;DHT22;6652;48.802;9.190;2023-04-01T02:41:11;9.10;99.90
13174;DHT22;6652;48.802;9.190;2023-04-01T02:43:39;9.00;99.90
13174;DHT22;6652;48.802;9.190;2023-04-01T02:46:06;9.00;99.90
13174;DHT22;6652;48.802;9.190;2023-04-01T02:48:33;9.10;99.90
13174;DHT22;6652;48.802;9.190;2023-04-01T02:51:01;8.90;99.90
13174;DHT22;6652;48.802;9.190;2023-04-01T02:53:28;8.80;99.90
13174;DHT22;6652;48.802;9.190;2023-04-01T02:55:54;9.00;99.90
13174;DHT22;6652;48.802;9.190;2023-04-01T02:58:21;8.70;99.90
13174;DHT22;6652;48.802;9.190;2023-04-01T03:00:49;8.70;99.90
13174;DHT22;6652;48.802;9.190;2023-04-01T03:03:16;9.30;99.90
13174;DHT22;6652;48.802;9.190;2023-04-01T03:05:43;9.40;99.90
13174;DHT22;6652;48.802;9.190;2023-04-01T03:08:10;8.70;99.90
13174;DHT22;6652;48.802;9.190;2023-04-01T03:10:37;8.70;99.90
13174;DHT22;6652;48.802;9.190;2023-04-01T03:13:04;8.70;99.90
13174;DHT22;6652;48.802;9.190;2023-04-01T03:15:31;8.70;99.90
13174;DHT22;6652;48.802;9.190;2023-04-01T03:17:59;8.80;99.90
13174;DHT22;6652;48.802;9.190;2023-04-01T03:20:26;9.40;99.90
13174;DHT22;6652;48.802;9.190;2023-04-01T03:22:53;9.20;99.90
13174;DHT22;6652;48.802;9.190;2023-04-01T03:25:20;8.70;99.90
13174;DHT22;6652;48.802;9.190;2023-04-01T03:27:47;8.60;99.90
13174;DHT22;6652;48.802;9.190;2023-04-01T03:30:14;8.60;99.90
13174;DHT22;6652;48.802;9.190;2023-04-01T03:32:40;8.50;99.90
13174;DHT22;6652;48.802;9.190;2023-04-01T03:35:09;8.50;99.90
13174;DHT22;6652;48.802;9.190;2023-04-01T03:37:36;8.50;99.90
13174;DHT22;6652;48.802;9.190;2023-04-01T03:40:04;8.50;99.90
13174;DHT22;6652;48.802;9.190;2023-04-01T03:42:31;8.50;99.90
13174;DHT22;6652;48.802;9.190;2023-04-01T03:44:58;8.60;99.90
13174;DHT22;6652;48.802;9.190;2023-04-01T03:47:24;8.60;99.90
13174;DHT22;6652;48.802;9.190;2023-04-01T03:49:51;8.70;99.90
13174;DHT22;6652;48.802;9.190;2023-04-01T03:52:19;8.60;99.90
13174;DHT22;6652;48.802;9.190;2023-04-01T03:54:46;9.10;99.90
13174;DHT22;6652;48.802;9.190;2023-04-01T03:57:13;9.60;99.90
13174;DHT22;6652;48.802;9.190;2023-04-01T03:59:40;8.60;99.90
13174;DHT22;6652;48.802;9.190;2023-04-01T04:02:07;8.60;99.90
13174;DHT22;6652;48.802;9.190;2023-04-01T04:04:34;8.50;99.90
13174;DHT22;6652;48.802;9.190;2023-04-01T04:07:01;9.10;99.90
13174;DHT22;6652;48.802;9.190;2023-04-01T04:09:30;8.50;99.90
13174;DHT22;6652;48.802;9.190;2023-04-01T04:11:56;9.80;99.90
13174;DHT22;6652;48.802;9.190;2023-04-01T04:14:23;8.90;99.90
13174;DHT22;6652;48.802;9.190;2023-04-01T04:16:50;8.40;99.90
13174;DHT22;6652;48.802;9.190;2023-04-01T04:19:17;8.90;99.90
13174;DHT22;6652;48.802;9.190;2023-04-01T04:21:44;8.40;99.90
13174;DHT22;6652;48.802;9.190;2023-04-01T04:24:11;8.40;99.90
13174;DHT22;6652;48.802;9.190;2023-04-01T04:26:39;8.40;99.90
13174;DHT22;6652;48.802;9.190;2023-04-01T04:29:06;9.70;99.90
13174;DHT22;6652;48.802;9.190;2023-04-01T04:31:32;8.40;99.90
13174;DHT22;6652;48.802;9.190;2023-04-01T04:34:00;8.30;99.90
13174;DHT22;6652;48.802;9.190;2023-04-01T04:36:27;8.30;99.90
13174;DHT22;6652;48.802;9.190;2023-04-01T04:38:54;8.20;99.90
13174;DHT22;6652;48.802;9.190;2023-04-01T04:41:21;8.20;99.90
13174;DHT22;6652;48.802;9.190;2023-04-01T04:43:54;8.20;99.90
13174;DHT22;6652;48.802;9.190;2023-04-01T04:46:22;8.20;99.90
13174;DHT22;6652;48.802;9.190;2023-04-01T04:48:49;8.10;99.90
13174;DHT22;6652;48.802;9.190;2023-04-01T04:51:17;8.10;99.90
13174;DHT22;6652;48.802;9.190;2023-04-01T04:53:45;8.10;99.90
13174;DHT22;6652;48.802;9.190;2023-04-01T04:56:12;8.10;99.90
13174;DHT22;6652;48.802;9.190;2023-04-01T04:58:40;8.10;99.90
13174;DHT22;6652;48.802;9.190;2023-04-01T05:01:11;8.10;99.90
13174;DHT22;6652;48.802;9.190;2023-04-01T05:03:38;8.10;99.90
13174;DHT22;6652;48.802;9.190;2023-04-01T05:06:06;8.10;99.90
13174;DHT22;6652;48.802;9.190;2023-04-01T05:08:33;8.10;99.90
13174;DHT22;6652;48.802;9.190;2023-04-01T05:11:01;8.00;99.90
13174;DHT22;6652;48.802;9.190;2023-04-01T05:13:28;8.10;99.90
13174;DHT22;6652;48.802;9.190;2023-04-01T05:15:55;8.00;99.90
13174;DHT22;6652;48.802;9.190;2023-04-01T05:18:23;8.10;99.90
13174;DHT22;6652;48.802;9.190;2023-04-01T05:20:52;8.10;99.90
13174;DHT22;6652;48.802;9.190;2023-04-01T05:23:19;8.10;99.90
13174;DHT22;6652;48.802;9.190;2023-04-01T05:25:47;8.30;99.90
13174;DHT22;6652;48.802;9.190;2023-04-01T05:28:14;8.10;99.90
13174;DHT22;6652;48.802;9.190;2023-04-01T05:30:42;8.20;99.90
13174;DHT22;6652;48.802;9.190;2023-04-01T05:33:11;8.30;99.90
13174;DHT22;6652;48.802;9.190;2023-04-01T05:35:40;8.40;99.90
13174;DHT22;6652;48.802;9.190;2023-04-01T05:38:07;8.50;99.90
13174;DHT22;6652;48.802;9.190;2023-04-01T05:40:34;8.60;99.90
13174;DHT22;6652;48.802;9.190;2023-04-01T05:43:01;8.80;99.90
13174;DHT22;6652;48.802;9.190;2023-04-01T05:45:28;9.00;99.90
13174;DHT22;6652;48.802;9.190;2023-04-01T05:47:54;9.00;99.90
13174;DHT22;6652;48.802;9.190;2023-04-01T05:50:21;9.50;99.90
13174;DHT22;6652;48.802;9.190;2023-04-01T05:52:49;9.20;99.90
13174;DHT22;6652;48.802;9.190;2023-04-01T05:55:16;9.40;99.90
13174;DHT22;6652;48.802;9.190;2023-04-01T05:57:44;9.50;99.90
13174;DHT22;6652;48.802;9.190;2023-04-01T06:00:12;9.70;99.90
13174;DHT22;6652;48.802;9.190;2023-04-01T06:02:39;9.80;99.90
13174;DHT22;6652;48.802;9.190;2023-04-01T06:05:13;10.00;99.90
13174;DHT22;6652;48.802;9.190;2023-04-01T06:08:21;10.10;99.90
13174;DHT22;6652;48.802;9.190;2023-04-01T06:11:15;10.30;99.90
13174;DHT22;6652;48.802;9.190;2023-04-01T06:14:01;10.40;99.90
13174;DHT22;6652;48.802;9.190;2023-04-01T06:16:43;10.50;99.90
13174;DHT22;6652;48.802;9.190;2023-04-01T06:19:22;10.60;99.90
13174;DHT22;6652;48.802;9.190;2023-04-01T06:22:19;10.70;99.90
13174;DHT22;6652;48.802;9.190;2023-04-01T06:25:02;10.90;99.90
13174;DHT22;6652;48.802;9.190;2023-04-01T06:27:47;11.00;99.90
13174;DHT22;6652;48.802;9.190;2023-04-01T06:30:35;11.00;99.90
13174;DHT22;6652;48.802;9.190;2023-04-01T06:33:20;11.00;99.90
13174;DHT22;6652;48.802;9.190;2023-04-01T06:36:08;11.10;99.90
13174;DHT22;6652;48.802;9.190;2023-04-01T06:41:58;11.00;99.90
13174;DHT22;6652;48.802;9.190;2023-04-01T06:44:36;10.90;99.90
13174;DHT22;6652;48.802;9.190;2023-04-01T06:47:17;10.80;99.90
13174;DHT22;6652;48.802;9.190;2023-04-01T06:49:52;10.70;99.90
13174;DHT22;6652;48.802;9.190;2023-04-01T06:52:26;10.60;99.90
13174;DHT22;6652;48.802;9.190;2023-04-01T06:55:02;10.80;99.90
13174;DHT22;6652;48.802;9.190;2023-04-01T06:57:38;10.60;99.90
13174;DHT22;6652;48.802;9.190;2023-04-01T07:00:13;10.60;99.90
13174;DHT22;6652;48.802;9.190;2023-04-01T07:02:41;10.70;99.90
13174;DHT22;6652;48.802;9.190;2023-04-01T07:05:11;10.90;99.90
13174;DHT22;6652;48.802;9.190;2023-04-01T07:07:41;10.80;99.90
13174;DHT22;6652;48.802;9.190;2023-04-01T07:10:13;10.80;99.90
13174;DHT22;6652;48.802;9.190;2023-04-01T07:12:47;10.90;99.90
13174;DHT22;6652;48.802;9.190;2023-04-01T07:15:19;10.90;99.90
13174;DHT22;6652;48.802;9.190;2023-04-01T07:17:52;11.10;99.90
13174;DHT22;6652;48.802;9.190;2023-04-01T07:20:20;11.00;99.90
13174;DHT22;6652;48.802;9.190;2023-04-01T07:22:50;11.20;99.90
13174;DHT22;6652;48.802;9.190;2023-04-01T07:25:20;10.90;99.90
13174;DHT22;6652;48.802;9.190;2023-04-01T07:27:50;11.20;99.90
13174;DHT22;6652;48.802;9.190;2023-04-01T07:30:20;10.90;99.90
13174;DHT22;6652;48.802;9.190;2023-04-01T07:32:51;10.90;99.90
13174;DHT22;6652;48.802;9.190;2023-04-01T07:35:23;11.20;99.90
13174;DHT22;6652;48.802;9.190;2023-04-01T07:38:01;10.80;99.90
13174;DHT22;6652;48.802;9.190;2023-04-01T07:40:37;10.80;99.90
13174;DHT22;6652;48.802;9.190;2023-04-01T07:43:24;10.70;99.90
13174;DHT22;6652;48.802;9.190;2023-04-01T07:45:59;10.70;99.90
13174;DHT22;6652;48.802;9.190;2023-04-01T07:48:35;10.70;99.90
13174;DHT22;6652;48.802;9.190;2023-04-01T07:51:09;10.70;99.90
13174;DHT22;6652;48.802;9.190;2023-04-01T07:53:42;10.80;99.90
13174;DHT22;6652;48.802;9.190;2023-04-01T07:56:13;11.10;99.90
13174;DHT22;6652;48.802;9.190;2023-04-01T07:58:53;10.90;99.90
13174;DHT22;6652;48.802;9.190;2023-04-01T08:01:30;11.00;99.90
13174;DHT22;6652;48.802;9.190;2023-04-01T08:04:18;11.00;99.90
13174;DHT22;6652;48.802;9.190;2023-04-01T08:06:53;11.10;99.90
13174;DHT22;6652;48.802;9.190;2023-04-01T08:09:31;11.20;99.90
13174;DHT22;6652;48.802;9.190;2023-04-01T08:12:12;11.40;99.90
13174;DHT22;6652;48.802;9.190;2023-04-01T08:14:51;11.20;99.90
13174;DHT22;6652;48.802;9.190;2023-04-01T08:17:26;11.10;99.90
13174;DHT22;6652;48.802;9.190;2023-04-01T08:20:04;11.10;99.90
13174;DHT22;6652;48.802;9.190;2023-04-01T08:22:38;11.80;99.90
13174;DHT22;6652;48.802;9.190;2023-04-01T08:25:10;11.30;99.90
13174;DHT22;6652;48.802;9.190;2023-04-01T08:27:45;11.50;99.90
13174;DHT22;6652;48.802;9.190;2023-04-01T08:30:18;11.70;99.90
13174;DHT22;6652;48.802;9.190;2023-04-01T08:32:52;11.80;99.90
13174;DHT22;6652;48.802;9.190;2023-04-01T08:35:27;11.60;99.90
13174;DHT22;6652;48.802;9.190;2023-04-01T08:38:01;11.60;99.90
13174;DHT22;6652;48.802;9.190;2023-04-01T08:40:51;11.60;99.90
13174;DHT22;6652;48.802;9.190;2023-04-01T08:49:11;11.30;99.90
13174;DHT22;6652;48.802;9.190;2023-04-01T08:52:16;11.10;99.90
13174;DHT22;6652;48.802;9.190;2023-04-01T08:57:48;10.80;99.90
13174;DHT22;6652;48.802;9.190;2023-04-01T09:00:26;10.60;99.90
13174;DHT22;6652;48.802;9.190;2023-04-01T09:03:11;10.60;99.90
13174;DHT22;6652;48.802;9.190;2023-04-01T09:06:10;10.60;99.90
13174;DHT22;6652;48.802;9.190;2023-04-01T09:08:51;10.80;99.90
13174;DHT22;6652;48.802;9.190;2023-04-01T09:11:28;10.80;99.90
13174;DHT22;6652;48.802;9.190;2023-04-01T09:14:16;10.80;99.90
13174;DHT22;6652;48.802;9.190;2023-04-01T09:17:18;10.80;99.90
13174;DHT22;6652;48.802;9.190;2023-04-01T09:20:17;10.90;99.90
13174;DHT22;6652;48.802;9.190;2023-04-01T09:22:53;11.10;99.90
13174;DHT22;6652;48.802;9.190;2023-04-01T09:25:38;11.10;99.90
13174;DHT22;6652;48.802;9.190;2023-04-01T09:28:16;11.20;99.90
13174;DHT22;6652;48.802;9.190;2023-04-01T09:31:00;11.50;99.90
13174;DHT22;6652;48.802;9.190;2023-04-01T09:33:52;12.10;99.90
13174;DHT22;6652;48.802;9.190;2023-04-01T09:36:38;12.00;99.90
13174;DHT22;6652;48.802;9.190;2023-04-01T09:39:33;12.00;99.90
13174;DHT22;6652;48.802;9.190;2023-04-01T09:42:14;12.20;99.90
13174;DHT22;6652;48.802;9.190;2023-04-01T09:44:47;12.20;99.90
13174;DHT22;6652;48.802;9.190;2023-04-01T09:47:25;12.20;99.90
13174;DHT22;6652;48.802;9.190;2023-04-01T09:50:17;11.80;99.90
13174;DHT22;6652;48.802;9.190;2023-04-01T09:52:56;11.80;99.90
13174;DHT22;6652;48.802;9.190;2023-04-01T09:55:56;11.70;99.90
13174;DHT22;6652;48.802;9.190;2023-04-01T09:58:59;11.70;99.90
13174;DHT22;6652;48.802;9.190;2023-04-01T10:01:42;11.70;99.90
13174;DHT22;6652;48.802;9.190;2023-04-01T10:04:34;11.60;99.90
13174;DHT22;6652;48.802;9.190;2023-04-01T10:16:57;11.50;99.90
13174;DHT22;6652;48.802;9.190;2023-04-01T10:25:57;11.80;99.90
13174;DHT22;6652;48.802;9.190;2023-04-01T10:28:41;12.00;99.90
13174;DHT22;6652;48.802;9.190;2023-04-01T10:31:51;12.50;99.90
13174;DHT22;6652;48.802;9.190;2023-04-01T10:40:37;12.60;99.90
13174;DHT22;6652;48.802;9.190;2023-04-01T10:43:37;12.40;99.90
13174;DHT22;6652;48.802;9.190;2023-04-01T10:46:24;12.70;99.90
13174;DHT22;6652;48.802;9.190;2023-04-01T10:49:24;12.10;99.90
13174;DHT22;6652;48.802;9.190;2023-04-01T10:55:02;12.00;99.90
13174;DHT22;6652;48.802;9.190;2023-04-01T10:57:57;12.00;99.90
13174;DHT22;6652;48.802;9.190;2023-04-01T11:13:25;12.00;99.90
13174;DHT22;6652;48.802;9.190;2023-04-01T11:22:20;12.70;99.90
13174;DHT22;6652;48.802;9.190;2023-04-01T11:25:03;13.00;99.90
13174;DHT22;6652;48.802;9.190;2023-04-01T11:27:50;13.20;99.90
13174;DHT22;6652;48.802;9.190;2023-04-01T11:30:29;13.40;99.90
13174;DHT22;6652;48.802;9.190;2023-04-01T11:33:03;13.60;99.90
13174;DHT22;6652;48.802;9.190;2023-04-01T11:35:54;13.60;99.90
13174;DHT22;6652;48.802;9.190;2023-04-01T11:41:39;14.00;99.90
13174;DHT22;6652;48.802;9.190;2023-04-01T11:44:18;14.20;99.90
13174;DHT22;6652;48.802;9.190;2023-04-01T11:47:15;14.40;99.90
13174;DHT22;6652;48.802;9.190;2023-04-01T11:49:53;14.50;99.90
13174;DHT22;6652;48.802;9.190;2023-04-01T11:52:32;14.60;99.90
13174;DHT22;6652;48.802;9.190;2023-04-01T11:55:19;14.60;99.90
13174;DHT22;6652;48.802;9.190;2023-04-01T11:58:01;14.60;99.90
13174;DHT22;6652;48.802;9.190;2023-04-01T12:00:52;14.50;99.90
13174;DHT22;6652;48.802;9.190;2023-04-01T12:03:37;14.10;99.90
13174;DHT22;6652;48.802;9.190;2023-04-01T12:06:13;13.90;99.90
13174;DHT22;6652;48.802;9.190;2023-04-01T12:08:48;14.30;99.90
13174;DHT22;6652;48.802;9.190;2023-04-01T12:11:27;14.30;99.90
13174;DHT22;6652;48.802;9.190;2023-04-01T12:13:59;13.50;99.90
13174;DHT22;6652;48.802;9.190;2023-04-01T12:16:46;13.60;99.90
13174;DHT22;6652;48.802;9.190;2023-04-01T12:19:23;13.60;99.90
13174;DHT22;6652;48.802;9.190;2023-04-01T12:22:03;13.70;99.90
13174;DHT22;6652;48.802;9.190;2023-04-01T12:24:45;13.50;99.90
13174;DHT22;6652;48.802;9.190;2023-04-01T12:27:23;13.50;99.90
13174;DHT22;6652;48.802;9.190;2023-04-01T12:30:18;13.50;99.90
13174;DHT22;6652;48.802;9.190;2023-04-01T12:32:57;13.50;99.90
13174;DHT22;6652;48.802;9.190;2023-04-01T12:35:27;13.50;99.90
13174;DHT22;6652;48.802;9.190;2023-04-01T12:38:16;13.60;99.90
13174;DHT22;6652;48.802;9.190;2023-04-01T12:40:56;13.70;99.90
13174;DHT22;6652;48.802;9.190;2023-04-01T12:46:52;13.90;99.90
13174;DHT22;6652;48.802;9.190;2023-04-01T12:49:44;14.00;99.90
13174;DHT22;6652;48.802;9.190;2023-04-01T12:52:15;13.70;99.90
13174;DHT22;6652;48.802;9.190;2023-04-01T13:01:09;13.80;99.90
13174;DHT22;6652;48.802;9.190;2023-04-01T13:06:52;13.80;99.90
13174;DHT22;6652;48.802;9.190;2023-04-01T13:09:34;14.00;99.90
13174;DHT22;6652;48.802;9.190;2023-04-01T13:12:34;14.00;99.90
13174;DHT22;6652;48.802;9.190;2023-04-01T13:15:16;13.90;99.90
13174;DHT22;6652;48.802;9.190;2023-04-01T13:17:52;13.90;99.90
13174;DHT22;6652;48.802;9.190;2023-04-01T13:20:22;13.80;99.90
13174;DHT22;6652;48.802;9.190;2023-04-01T13:23:01;13.70;99.90
13174;DHT22;6652;48.802;9.190;2023-04-01T13:25:37;13.60;99.90
13174;DHT22;6652;48.802;9.190;2023-04-01T13:28:12;13.50;99.90
13174;DHT22;6652;48.802;9.190;2023-04-01T13:30:47;13.70;99.90
13174;DHT22;6652;48.802;9.190;2023-04-01T13:33:24;13.70;99.90
13174;DHT22;6652;48.802;9.190;2023-04-01T13:36:02;13.80;99.90
13174;DHT22;6652;48.802;9.190;2023-04-01T13:38:52;13.90;99.90
13174;DHT22;6652;48.802;9.190;2023-04-01T13:41:34;13.90;99.90
13174;DHT22;6652;48.802;9.190;2023-04-01T13:44:09;13.90;99.90
13174;DHT22;6652;48.802;9.190;2023-04-01T13:47:01;13.90;99.90
13174;DHT22;6652;48.802;9.190;2023-04-01T13:49:48;13.70;99.90
13174;DHT22;6652;48.802;9.190;2023-04-01T13:52:54;13.70;99.90
13174;DHT22;6652;48.802;9.190;2023-04-01T13:55:44;13.60;99.90
13174;DHT22;6652;48.802;9.190;2023-04-01T13:58:26;13.50;99.90
13174;DHT22;6652;48.802;9.190;2023-04-01T14:01:06;13.60;99.90
13174;DHT22;6652;48.802;9.190;2023-04-01T14:03:48;14.30;99.90
13174;DHT22;6652;48.802;9.190;2023-04-01T14:06:35;13.70;99.90
13174;DHT22;6652;48.802;9.190;2023-04-01T14:09:49;13.50;99.90
13174;DHT22;6652;48.802;9.190;2023-04-01T14:12:28;13.40;99.90
13174;DHT22;6652;48.802;9.190;2023-04-01T14:15:23;13.40;99.90
13174;DHT22;6652;48.802;9.190;2023-04-01T14:18:03;13.40;99.90
13174;DHT22;6652;48.802;9.190;2023-04-01T14:20:38;13.30;99.90
13174;DHT22;6652;48.802;9.190;2023-04-01T14:23:23;13.40;99.90
13174;DHT22;6652;48.802;9.190;2023-04-01T14:28:49;13.20;99.90
13174;DHT22;6652;48.802;9.190;2023-04-01T14:31:38;13.10;99.90
13174;DHT22;6652;48.802;9.190;2023-04-01T14:34:18;13.00;99.90
13174;DHT22;6652;48.802;9.190;2023-04-01T14:36:56;13.00;99.90
13174;DHT22;6652;48.802;9.190;2023-04-01T14:39:48;13.00;99.90
13174;DHT22;6652;48.802;9.190;2023-04-01T14:42:38;12.90;99.90
13174;DHT22;6652;48.802;9.190;2023-04-01T14:48:13;12.50;99.90
13174;DHT22;6652;48.802;9.190;2023-04-01T14:50:44;12.50;99.90
13174;DHT22;6652;48.802;9.190;2023-04-01T14:53:23;12.50;99.90
13174;DHT22;6652;48.802;9.190;2023-04-01T14:55:55;12.50;99.90
13174;DHT22;6652;48.802;9.190;2023-04-01T14:58:23;12.50;99.90
13174;DHT22;6652;48.802;9.190;2023-04-01T15:01:00;12.60;99.90
13174;DHT22;6652;48.802;9.190;2023-04-01T15:03:37;12.60;99.90
13174;DHT22;6652;48.802;9.190;2023-04-01T15:06:37;12.60;99.90
13174;DHT22;6652;48.802;9.190;2023-04-01T15:09:13;12.60;99.90
13174;DHT22;6652;48.802;9.190;2023-04-01T15:11:51;12.70;99.90
13174;DHT22;6652;48.802;9.190;2023-04-01T15:14:26;12.70;99.90
13174;DHT22;6652;48.802;9.190;2023-04-01T15:17:05;13.30;99.90
13174;DHT22;6652;48.802;9.190;2023-04-01T15:19:56;12.80;99.90
13174;DHT22;6652;48.802;9.190;2023-04-01T15:22:37;12.80;99.90
13174;DHT22;6652;48.802;9.190;2023-04-01T15:25:25;13.00;99.90
13174;DHT22;6652;48.802;9.190;2023-04-01T15:28:01;12.80;99.90
13174;DHT22;6652;48.802;9.190;2023-04-01T15:30:34;12.80;99.90
13174;DHT22;6652;48.802;9.190;2023-04-01T15:33:25;12.70;99.90
13174;DHT22;6652;48.802;9.190;2023-04-01T15:36:05;12.70;99.90
13174;DHT22;6652;48.802;9.190;2023-04-01T15:38:41;12.70;99.90
13174;DHT22;6652;48.802;9.190;2023-04-01T15:41:14;12.70;99.90
13174;DHT22;6652;48.802;9.190;2023-04-01T15:43:44;12.60;99.90
13174;DHT22;6652;48.802;9.190;2023-04-01T15:46:43;13.20;99.90
13174;DHT22;6652;48.802;9.190;2023-04-01T15:49:28;12.70;99.90
13174;DHT22;6652;48.802;9.190;2023-04-01T15:52:07;12.60;99.90
13174;DHT22;6652;48.802;9.190;2023-04-01T15:55:01;12.50;99.90
13174;DHT22;6652;48.802;9.190;2023-04-01T15:57:38;12.50;99.90
13174;DHT22;6652;48.802;9.190;2023-04-01T16:00:15;12.40;99.90
13174;DHT22;6652;48.802;9.190;2023-04-01T16:02:48;12.40;99.90
13174;DHT22;6652;48.802;9.190;2023-04-01T16:05:31;12.40;99.90
13174;DHT22;6652;48.802;9.190;2023-04-01T16:08:12;12.40;99.90
13174;DHT22;6652;48.802;9.190;2023-04-01T16:10:56;12.30;99.90
13174;DHT22;6652;48.802;9.190;2023-04-01T16:13:31;12.30;99.90
13174;DHT22;6652;48.802;9.190;2023-04-01T16:16:07;12.20;99.90
13174;DHT22;6652;48.802;9.190;2023-04-01T16:18:51;12.20;99.90
13174;DHT22;6652;48.802;9.190;2023-04-01T16:21:35;12.30;99.90
13174;DHT22;6652;48.802;9.190;2023-04-01T16:24:10;12.20;99.90
13174;DHT22;6652;48.802;9.190;2023-04-01T16:26:44;12.20;99.90
13174;DHT22;6652;48.802;9.190;2023-04-01T16:29:22;12.60;99.90
13174;DHT22;6652;48.802;9.190;2023-04-01T16:31:58;12.10;99.90
13174;DHT22;6652;48.802;9.190;2023-04-01T16:34:34;12.10;99.90
13174;DHT22;6652;48.802;9.190;2023-04-01T16:37:07;12.00;99.90
13174;DHT22;6652;48.802;9.190;2023-04-01T16:39:46;11.90;99.90
13174;DHT22;6652;48.802;9.190;2023-04-01T16:42:22;12.00;99.90
13174;DHT22;6652;48.802;9.190;2023-04-01T16:45:06;11.90;99.90
13174;DHT22;6652;48.802;9.190;2023-04-01T16:47:47;11.90;99.90
13174;DHT22;6652;48.802;9.190;2023-04-01T16:50:20;11.90;99.90
13174;DHT22;6652;48.802;9.190;2023-04-01T16:52:57;11.90;99.90
13174;DHT22;6652;48.802;9.190;2023-04-01T16:55:34;11.90;99.90
13174;DHT22;6652;48.802;9.190;2023-04-01T16:58:02;11.90;99.90
13174;DHT22;6652;48.802;9.190;2023-04-01T17:00:37;11.90;99.90
13174;DHT22;6652;48.802;9.190;2023-04-01T17:03:13;12.00;99.90
13174;DHT22;6652;48.802;9.190;2023-04-01T17:05:56;12.00;99.90
13174;DHT22;6652;48.802;9.190;2023-04-01T17:08:33;11.90;99.90
13174;DHT22;6652;48.802;9.190;2023-04-01T17:11:11;12.00;99.90
13174;DHT22;6652;48.802;9.190;2023-04-01T17:13:46;11.90;99.90
13174;DHT22;6652;48.802;9.190;2023-04-01T17:16:32;11.80;99.90
13174;DHT22;6652;48.802;9.190;2023-04-01T17:19:14;11.80;99.90
13174;DHT22;6652;48.802;9.190;2023-04-01T17:21:57;11.70;99.90
13174;DHT22;6652;48.802;9.190;2023-04-01T17:24:41;11.70;99.90
13174;DHT22;6652;48.802;9.190;2023-04-01T17:27:21;11.70;99.90
13174;DHT22;6652;48.802;9.190;2023-04-01T17:30:02;11.60;99.90
13174;DHT22;6652;48.802;9.190;2023-04-01T17:32:41;11.70;99.90
13174;DHT22;6652;48.802;9.190;2023-04-01T17:35:17;11.60;99.90
13174;DHT22;6652;48.802;9.190;2023-04-01T17:37:54;12.50;99.90
13174;DHT22;6652;48.802;9.190;2023-04-01T17:40:37;11.60;99.90
13174;DHT22;6652;48.802;9.190;2023-04-01T17:43:12;11.60;99.90
13174;DHT22;6652;48.802;9.190;2023-04-01T17:45:45;11.60;99.90
13174;DHT22;6652;48.802;9.190;2023-04-01T17:48:24;11.60;99.90
13174;DHT22;6652;48.802;9.190;2023-04-01T17:51:03;11.60;99.90
13174;DHT22;6652;48.802;9.190;2023-04-01T17:53:36;11.50;99.90
13174;DHT22;6652;48.802;9.190;2023-04-01T17:56:17;11.50;99.90
13174;DHT22;6652;48.802;9.190;2023-04-01T17:58:46;11.50;99.90
13174;DHT22;6652;48.802;9.190;2023-04-01T18:01:30;11.50;99.90
13174;DHT22;6652;48.802;9.190;2023-04-01T18:04:36;11.50;99.90
13174;DHT22;6652;48.802;9.190;2023-04-01T18:07:18;11.40;99.90
13174;DHT22;6652;48.802;9.190;2023-04-01T18:09:56;11.30;99.90
13174;DHT22;6652;48.802;9.190;2023-04-01T18:12:35;11.30;99.90